sensor_id;sensor_type;location;lat;lon;timestamp;pressure;altitude;pressure_sealevel;temperature
67599;BMP280;62026;39.230;9.122;2022-09-12T00:01:09;100971.09;;;27.69
67599;BMP280;62026;39.230;9.122;2022-09-12T00:03:36;100977.94;;;27.66
67599;BMP280;62026;39.230;9.122;2022-09-12T00:06:24;100978.72;;;27.75
67599;BMP280;62026;39.230;9.122;2022-09-12T00:08:53;100971.88;;;27.69
67599;BMP280;62026;39.230;9.122;2022-09-12T00:11:19;100979.38;;;27.72
67599;BMP280;62026;39.230;9.122;2022-09-12T00:13:45;100977.75;;;27.71
67599;BMP280;62026;39.230;9.122;2022-09-12T00:16:31;100973.00;;;27.68
67599;BMP280;62026;39.230;9.122;2022-09-12T00:18:58;100970.13;;;27.64
67599;BMP280;62026;39.230;9.122;2022-09-12T00:21:24;100953.44;;;27.54
67599;BMP280;62026;39.230;9.122;2022-09-12T00:23:51;100962.47;;;27.66
67599;BMP280;62026;39.230;9.122;2022-09-12T00:26:18;100957.03;;;27.66
67599;BMP280;62026;39.230;9.122;2022-09-12T00:28:45;100959.44;;;27.68
67599;BMP280;62026;39.230;9.122;2022-09-12T00:31:17;100934.88;;;27.56
67599;BMP280;62026;39.230;9.122;2022-09-12T00:33:43;100946.72;;;27.60
67599;BMP280;62026;39.230;9.122;2022-09-12T00:36:16;100950.84;;;27.57
67599;BMP280;62026;39.230;9.122;2022-09-12T00:38:43;100956.09;;;27.62
67599;BMP280;62026;39.230;9.122;2022-09-12T00:43:42;100949.72;;;27.58
67599;BMP280;62026;39.230;9.122;2022-09-12T00:48:49;100948.91;;;27.58
67599;BMP280;62026;39.230;9.122;2022-09-12T00:51:17;100944.28;;;27.58
67599;BMP280;62026;39.230;9.122;2022-09-12T00:53:45;100948.31;;;27.61
67599;BMP280;62026;39.230;9.122;2022-09-12T00:56:15;100939.19;;;27.57
67599;BMP280;62026;39.230;9.122;2022-09-12T00:58:47;100907.53;;;27.32
67599;BMP280;62026;39.230;9.122;2022-09-12T01:01:15;100941.28;;;27.51
67599;BMP280;62026;39.230;9.122;2022-09-12T01:03:41;100931.25;;;27.43
67599;BMP280;62026;39.230;9.122;2022-09-12T01:08:42;100946.09;;;27.46
67599;BMP280;62026;39.230;9.122;2022-09-12T01:11:10;100930.44;;;27.43
67599;BMP280;62026;39.230;9.122;2022-09-12T01:13:36;100932.03;;;27.44
67599;BMP280;62026;39.230;9.122;2022-09-12T01:16:04;100930.00;;;27.41
67599;BMP280;62026;39.230;9.122;2022-09-12T01:18:49;100904.06;;;27.22
67599;BMP280;62026;39.230;9.122;2022-09-12T01:21:31;100931.25;;;27.43
67599;BMP280;62026;39.230;9.122;2022-09-12T01:35:08;100919.47;;;27.39
67599;BMP280;62026;39.230;9.122;2022-09-12T01:48:33;100910.06;;;27.37
67599;BMP280;62026;39.230;9.122;2022-09-12T01:53:50;100899.84;;;27.34
67599;BMP280;62026;39.230;9.122;2022-09-12T01:56:21;100907.09;;;27.30
67599;BMP280;62026;39.230;9.122;2022-09-12T01:59:07;100914.56;;;27.33
67599;BMP280;62026;39.230;9.122;2022-09-12T02:01:44;100911.84;;;27.33
67599;BMP280;62026;39.230;9.122;2022-09-12T02:04:16;100909.13;;;27.33
67599;BMP280;62026;39.230;9.122;2022-09-12T02:06:49;100904.38;;;27.30
67599;BMP280;62026;39.230;9.122;2022-09-12T02:09:21;100902.78;;;27.29
67599;BMP280;62026;39.230;9.122;2022-09-12T02:11:49;100894.78;;;27.23
67599;BMP280;62026;39.230;9.122;2022-09-12T02:14:21;100890.97;;;27.24
67599;BMP280;62026;39.230;9.122;2022-09-12T02:16:53;100875.19;;;27.18
67599;BMP280;62026;39.230;9.122;2022-09-12T02:19:27;100897.50;;;27.23
67599;BMP280;62026;39.230;9.122;2022-09-12T02:21:57;100881.84;;;27.20
67599;BMP280;62026;39.230;9.122;2022-09-12T02:24:27;100892.56;;;27.26
67599;BMP280;62026;39.230;9.122;2022-09-12T02:27:15;100889.34;;;27.23
67599;BMP280;62026;39.230;9.122;2022-09-12T02:29:43;100890.50;;;27.22
67599;BMP280;62026;39.230;9.122;2022-09-12T02:32:44;100893.84;;;27.19
67599;BMP280;62026;39.230;9.122;2022-09-12T02:35:15;100883.94;;;27.23
67599;BMP280;62026;39.230;9.122;2022-09-12T02:38:10;100882.81;;;27.24
67599;BMP280;62026;39.230;9.122;2022-09-12T02:40:37;100890.97;;;27.24
67599;BMP280;62026;39.230;9.122;2022-09-12T02:43:05;100873.13;;;27.15
67599;BMP280;62026;39.230;9.122;2022-09-12T02:45:32;100881.09;;;27.20
67599;BMP280;62026;39.230;9.122;2022-09-12T02:48:04;100875.97;;;27.18
67599;BMP280;62026;39.230;9.122;2022-09-12T02:50:31;100882.84;;;27.16
67599;BMP280;62026;39.230;9.122;2022-09-12T02:52:58;100875.03;;;27.14
67599;BMP280;62026;39.230;9.122;2022-09-12T02:55:31;100855.00;;;26.98
67599;BMP280;62026;39.230;9.122;2022-09-12T02:58:00;100878.38;;;27.11
67599;BMP280;62026;39.230;9.122;2022-09-12T03:00:30;100872.97;;;27.11
67599;BMP280;62026;39.230;9.122;2022-09-12T03:06:32;100879.97;;;27.12
67599;BMP280;62026;39.230;9.122;2022-09-12T03:09:11;100874.25;;;27.05
67599;BMP280;62026;39.230;9.122;2022-09-12T03:17:40;100871.53;;;27.05
67599;BMP280;62026;39.230;9.122;2022-09-12T03:20:17;100868.69;;;27.02
67599;BMP280;62026;39.230;9.122;2022-09-12T03:22:53;100868.22;;;27.00
67599;BMP280;62026;39.230;9.122;2022-09-12T03:25:33;100869.03;;;27.00
67599;BMP280;62026;39.230;9.122;2022-09-12T03:28:05;100877.47;;;26.99
67599;BMP280;62026;39.230;9.122;2022-09-12T03:30:44;100871.53;;;27.05
67599;BMP280;62026;39.230;9.122;2022-09-12T03:33:11;100858.66;;;26.94
67599;BMP280;62026;39.230;9.122;2022-09-12T03:35:38;100872.84;;;26.99
67599;BMP280;62026;39.230;9.122;2022-09-12T03:38:04;100874.44;;;27.00
67599;BMP280;62026;39.230;9.122;2022-09-12T03:40:33;100870.63;;;27.01
67599;BMP280;62026;39.230;9.122;2022-09-12T03:43:00;100870.31;;;26.94
67599;BMP280;62026;39.230;9.122;2022-09-12T03:45:26;100882.91;;;26.99
67599;BMP280;62026;39.230;9.122;2022-09-12T03:47:52;100867.94;;;26.84
67599;BMP280;62026;39.230;9.122;2022-09-12T03:50:17;100866.34;;;26.83
67599;BMP280;62026;39.230;9.122;2022-09-12T03:52:44;100883.06;;;26.94
67599;BMP280;62026;39.230;9.122;2022-09-12T03:55:10;100891.34;;;26.97
67599;BMP280;62026;39.230;9.122;2022-09-12T03:57:35;100892.94;;;26.98
67599;BMP280;62026;39.230;9.122;2022-09-12T04:00:03;100885.91;;;26.97
67599;BMP280;62026;39.230;9.122;2022-09-12T04:02:38;100870.94;;;26.82
67599;BMP280;62026;39.230;9.122;2022-09-12T04:05:04;100878.78;;;26.84
67599;BMP280;62026;39.230;9.122;2022-09-12T04:07:30;100878.25;;;26.82
67599;BMP280;62026;39.230;9.122;2022-09-12T04:09:56;100895.63;;;26.90
67599;BMP280;62026;39.230;9.122;2022-09-12T04:12:22;100899.97;;;26.91
67599;BMP280;62026;39.230;9.122;2022-09-12T04:14:48;100896.44;;;26.90
67599;BMP280;62026;39.230;9.122;2022-09-12T04:17:14;100905.06;;;26.92
67599;BMP280;62026;39.230;9.122;2022-09-12T04:19:40;100896.63;;;26.85
67599;BMP280;62026;39.230;9.122;2022-09-12T04:22:06;100905.69;;;26.89
67599;BMP280;62026;39.230;9.122;2022-09-12T04:24:32;100910.31;;;26.89
67599;BMP280;62026;39.230;9.122;2022-09-12T04:26:58;100905.22;;;26.87
67599;BMP280;62026;39.230;9.122;2022-09-12T04:29:24;100906.47;;;26.90
67599;BMP280;62026;39.230;9.122;2022-09-12T04:31:50;100897.56;;;26.89
67599;BMP280;62026;39.230;9.122;2022-09-12T04:34:16;100909.53;;;26.88
67599;BMP280;62026;39.230;9.122;2022-09-12T04:36:42;100921.78;;;26.86
67599;BMP280;62026;39.230;9.122;2022-09-12T04:39:09;100909.22;;;26.81
67599;BMP280;62026;39.230;9.122;2022-09-12T04:41:37;100920.84;;;26.81
67599;BMP280;62026;39.230;9.122;2022-09-12T04:46:34;100934.09;;;26.83
67599;BMP280;62026;39.230;9.122;2022-09-12T04:49:00;100943.16;;;26.87
67599;BMP280;62026;39.230;9.122;2022-09-12T04:51:31;100934.09;;;26.83
67599;BMP280;62026;39.230;9.122;2022-09-12T04:54:02;100939.50;;;26.83
67599;BMP280;62026;39.230;9.122;2022-09-12T04:56:29;100937.88;;;26.82
67599;BMP280;62026;39.230;9.122;2022-09-12T04:58:56;100940.13;;;26.80
67599;BMP280;62026;39.230;9.122;2022-09-12T05:01:23;100945.56;;;26.80
67599;BMP280;62026;39.230;9.122;2022-09-12T05:03:50;100911.28;;;26.58
67599;BMP280;62026;39.230;9.122;2022-09-12T05:06:22;100950.34;;;26.83
67599;BMP280;62026;39.230;9.122;2022-09-12T05:08:49;100944.59;;;26.76
67599;BMP280;62026;39.230;9.122;2022-09-12T05:11:20;100925.63;;;26.67
67599;BMP280;62026;39.230;9.122;2022-09-12T05:13:47;100948.72;;;26.82
67599;BMP280;62026;39.230;9.122;2022-09-12T05:16:14;100946.81;;;26.74
67599;BMP280;62026;39.230;9.122;2022-09-12T05:18:41;100949.06;;;26.72
67599;BMP280;62026;39.230;9.122;2022-09-12T05:21:10;100969.47;;;26.78
67599;BMP280;62026;39.230;9.122;2022-09-12T05:23:37;100960.69;;;26.81
67599;BMP280;62026;39.230;9.122;2022-09-12T05:26:05;100939.97;;;26.59
67599;BMP280;62026;39.230;9.122;2022-09-12T05:28:36;100946.16;;;26.60
67599;BMP280;62026;39.230;9.122;2022-09-12T05:31:11;100967.69;;;26.73
67599;BMP280;62026;39.230;9.122;2022-09-12T05:33:38;100969.28;;;26.74
67599;BMP280;62026;39.230;9.122;2022-09-12T05:36:06;100974.72;;;26.74
67599;BMP280;62026;39.230;9.122;2022-09-12T05:38:35;100969.78;;;26.76
67599;BMP280;62026;39.230;9.122;2022-09-12T05:41:07;100972.31;;;26.73
67599;BMP280;62026;39.230;9.122;2022-09-12T05:43:34;100980.94;;;26.75
67599;BMP280;62026;39.230;9.122;2022-09-12T05:46:21;100984.94;;;26.77
67599;BMP280;62026;39.230;9.122;2022-09-12T05:48:48;100984.47;;;26.84
67599;BMP280;62026;39.230;9.122;2022-09-12T05:51:18;100988.44;;;26.87
67599;BMP280;62026;39.230;9.122;2022-09-12T05:53:51;100975.81;;;26.82
67599;BMP280;62026;39.230;9.122;2022-09-12T05:56:19;100986.06;;;26.94
67599;BMP280;62026;39.230;9.122;2022-09-12T05:58:47;100984.16;;;26.94
67599;BMP280;62026;39.230;9.122;2022-09-12T06:01:15;100987.31;;;26.96
67599;BMP280;62026;39.230;9.122;2022-09-12T06:03:47;100984.47;;;27.01
67599;BMP280;62026;39.230;9.122;2022-09-12T06:06:15;100955.91;;;26.87
67599;BMP280;62026;39.230;9.122;2022-09-12T06:08:43;100987.97;;;27.10
67599;BMP280;62026;39.230;9.122;2022-09-12T06:11:12;100983.81;;;27.04
67599;BMP280;62026;39.230;9.122;2022-09-12T06:13:40;100990.50;;;27.15
67599;BMP280;62026;39.230;9.122;2022-09-12T06:16:11;100983.81;;;27.04
67599;BMP280;62026;39.230;9.122;2022-09-12T06:18:38;100988.63;;;27.07
67599;BMP280;62026;39.230;9.122;2022-09-12T06:21:09;100991.47;;;27.19
67599;BMP280;62026;39.230;9.122;2022-09-12T06:23:36;101000.09;;;27.21
67599;BMP280;62026;39.230;9.122;2022-09-12T06:26:04;100986.97;;;27.23
67599;BMP280;62026;39.230;9.122;2022-09-12T06:28:31;100993.50;;;27.40
67599;BMP280;62026;39.230;9.122;2022-09-12T06:31:08;100992.22;;;27.46
67599;BMP280;62026;39.230;9.122;2022-09-12T06:33:37;100984.56;;;27.39
67599;BMP280;62026;39.230;9.122;2022-09-12T06:36:10;100988.84;;;27.57
67599;BMP280;62026;39.230;9.122;2022-09-12T06:38:37;100984.69;;;27.60
67599;BMP280;62026;39.230;9.122;2022-09-12T06:41:04;100983.69;;;27.73
67599;BMP280;62026;39.230;9.122;2022-09-12T06:43:32;100994.34;;;27.78
67599;BMP280;62026;39.230;9.122;2022-09-12T06:45:59;100977.31;;;27.69
67599;BMP280;62026;39.230;9.122;2022-09-12T06:48:25;100986.72;;;27.72
67599;BMP280;62026;39.230;9.122;2022-09-12T06:50:56;100989.38;;;27.80
67599;BMP280;62026;39.230;9.122;2022-09-12T06:53:24;100995.88;;;27.96
67599;BMP280;62026;39.230;9.122;2022-09-12T06:55:54;100981.66;;;27.99
67599;BMP280;62026;39.230;9.122;2022-09-12T06:58:21;100984.16;;;28.04
67599;BMP280;62026;39.230;9.122;2022-09-12T07:00:47;100995.38;;;28.03
67599;BMP280;62026;39.230;9.122;2022-09-12T07:03:13;100994.09;;;28.00
67599;BMP280;62026;39.230;9.122;2022-09-12T07:05:39;100996.28;;;28.16
67599;BMP280;62026;39.230;9.122;2022-09-12T07:08:05;100998.13;;;28.24
67599;BMP280;62026;39.230;9.122;2022-09-12T07:10:30;100993.56;;;28.16
67599;BMP280;62026;39.230;9.122;2022-09-12T07:12:56;100990.84;;;28.16
67599;BMP280;62026;39.230;9.122;2022-09-12T07:15:23;100995.72;;;28.31
67599;BMP280;62026;39.230;9.122;2022-09-12T07:17:49;100999.34;;;28.35
67599;BMP280;62026;39.230;9.122;2022-09-12T07:20:15;100993.28;;;28.38
67599;BMP280;62026;39.230;9.122;2022-09-12T07:22:41;100983.97;;;28.39
67599;BMP280;62026;39.230;9.122;2022-09-12T07:25:07;100995.50;;;28.36
67599;BMP280;62026;39.230;9.122;2022-09-12T07:27:33;100976.97;;;28.38
67599;BMP280;62026;39.230;9.122;2022-09-12T07:29:59;100986.78;;;28.51
67599;BMP280;62026;39.230;9.122;2022-09-12T07:32:26;100979.22;;;28.36
67599;BMP280;62026;39.230;9.122;2022-09-12T07:34:52;100990.38;;;28.43
67599;BMP280;62026;39.230;9.122;2022-09-12T07:37:18;100971.94;;;28.28
67599;BMP280;62026;39.230;9.122;2022-09-12T07:39:44;100983.06;;;28.35
67599;BMP280;62026;39.230;9.122;2022-09-12T07:42:10;100984.66;;;28.36
67599;BMP280;62026;39.230;9.122;2022-09-12T07:44:37;100978.53;;;28.39
67599;BMP280;62026;39.230;9.122;2022-09-12T07:47:03;100992.84;;;28.48
67599;BMP280;62026;39.230;9.122;2022-09-12T07:49:29;100993.53;;;28.45
67599;BMP280;62026;39.230;9.122;2022-09-12T07:51:55;100997.66;;;28.51
67599;BMP280;62026;39.230;9.122;2022-09-12T07:54:21;101002.06;;;28.35
67599;BMP280;62026;39.230;9.122;2022-09-12T07:56:48;101002.28;;;28.50
67599;BMP280;62026;39.230;9.122;2022-09-12T07:59:14;100996.00;;;28.79
67599;BMP280;62026;39.230;9.122;2022-09-12T08:01:40;100986.91;;;28.75
67599;BMP280;62026;39.230;9.122;2022-09-12T08:04:07;100996.50;;;28.93
67599;BMP280;62026;39.230;9.122;2022-09-12T08:06:34;101011.72;;;29.39
67599;BMP280;62026;39.230;9.122;2022-09-12T08:09:01;101005.44;;;29.15
67599;BMP280;62026;39.230;9.122;2022-09-12T08:11:28;100993.47;;;29.28
67599;BMP280;62026;39.230;9.122;2022-09-12T08:13:55;100987.75;;;29.54
67599;BMP280;62026;39.230;9.122;2022-09-12T08:16:24;101005.56;;;29.75
67599;BMP280;62026;39.230;9.122;2022-09-12T08:18:50;101008.06;;;29.68
67599;BMP280;62026;39.230;9.122;2022-09-12T08:21:22;100991.25;;;29.78
67599;BMP280;62026;39.230;9.122;2022-09-12T08:23:53;101004.00;;;30.11
67599;BMP280;62026;39.230;9.122;2022-09-12T08:26:21;101010.78;;;30.05
67599;BMP280;62026;39.230;9.122;2022-09-12T08:28:48;101011.03;;;29.88
67599;BMP280;62026;39.230;9.122;2022-09-12T08:31:16;100997.16;;;30.05
67599;BMP280;62026;39.230;9.122;2022-09-12T08:33:42;101009.59;;;30.18
67599;BMP280;62026;39.230;9.122;2022-09-12T08:36:13;101005.47;;;30.48
67599;BMP280;62026;39.230;9.122;2022-09-12T08:38:42;101003.66;;;30.52
67599;BMP280;62026;39.230;9.122;2022-09-12T08:43:58;101008.09;;;30.57
67599;BMP280;62026;39.230;9.122;2022-09-12T08:46:40;101017.53;;;30.47
67599;BMP280;62026;39.230;9.122;2022-09-12T08:49:15;101013.84;;;30.67
67599;BMP280;62026;39.230;9.122;2022-09-12T08:51:44;101003.19;;;30.62
67599;BMP280;62026;39.230;9.122;2022-09-12T08:54:20;101005.84;;;30.74
67599;BMP280;62026;39.230;9.122;2022-09-12T08:56:48;100993.38;;;30.73
67599;BMP280;62026;39.230;9.122;2022-09-12T08:59:15;101008.66;;;30.90
67599;BMP280;62026;39.230;9.122;2022-09-12T09:01:43;101006.84;;;31.88
67599;BMP280;62026;39.230;9.122;2022-09-12T09:18:10;101003.59;;;31.67
67599;BMP280;62026;39.230;9.122;2022-09-12T09:21:02;101013.28;;;31.49
67599;BMP280;62026;39.230;9.122;2022-09-12T09:23:41;101010.91;;;31.32
67599;BMP280;62026;39.230;9.122;2022-09-12T09:26:55;101009.13;;;30.80
67599;BMP280;62026;39.230;9.122;2022-09-12T09:29:13;101007.56;;;30.79
67599;BMP280;62026;39.230;9.122;2022-09-12T09:31:41;101003.63;;;30.64
67599;BMP280;62026;39.230;9.122;2022-09-12T09:34:21;101019.06;;;30.72
67599;BMP280;62026;39.230;9.122;2022-09-12T09:36:50;100998.22;;;30.52
67599;BMP280;62026;39.230;9.122;2022-09-12T09:42:40;101008.22;;;30.48
67599;BMP280;62026;39.230;9.122;2022-09-12T09:45:14;101011.78;;;30.37
67599;BMP280;62026;39.230;9.122;2022-09-12T09:50:20;100989.59;;;30.50
67599;BMP280;62026;39.230;9.122;2022-09-12T09:52:49;101004.88;;;30.67
67599;BMP280;62026;39.230;9.122;2022-09-12T09:55:22;101000.63;;;30.82
67599;BMP280;62026;39.230;9.122;2022-09-12T09:57:50;101012.22;;;31.22
67599;BMP280;62026;39.230;9.122;2022-09-12T10:00:44;101002.69;;;30.72
67599;BMP280;62026;39.230;9.122;2022-09-12T10:03:25;100992.63;;;30.89
67599;BMP280;62026;39.230;9.122;2022-09-12T10:05:58;100994.53;;;30.60
67599;BMP280;62026;39.230;9.122;2022-09-12T10:11:00;100969.91;;;30.17
67599;BMP280;62026;39.230;9.122;2022-09-12T10:13:33;100989.72;;;30.82
67599;BMP280;62026;39.230;9.122;2022-09-12T10:16:02;100994.50;;;31.16
67599;BMP280;62026;39.230;9.122;2022-09-12T10:18:48;100999.13;;;30.56
67599;BMP280;62026;39.230;9.122;2022-09-12T10:21:24;100999.38;;;30.51
67599;BMP280;62026;39.230;9.122;2022-09-12T10:24:01;100981.63;;;29.93
67599;BMP280;62026;39.230;9.122;2022-09-12T10:26:34;100981.50;;;30.14
67599;BMP280;62026;39.230;9.122;2022-09-12T10:29:38;100983.41;;;30.01
67599;BMP280;62026;39.230;9.122;2022-09-12T10:31:58;100982.63;;;30.01
67599;BMP280;62026;39.230;9.122;2022-09-12T10:34:43;100991.47;;;30.34
67599;BMP280;62026;39.230;9.122;2022-09-12T10:37:17;100990.22;;;29.83
67599;BMP280;62026;39.230;9.122;2022-09-12T10:39:51;100986.72;;;29.70
67599;BMP280;62026;39.230;9.122;2022-09-12T10:45:28;100983.34;;;29.86
67599;BMP280;62026;39.230;9.122;2022-09-12T10:47:56;100985.94;;;29.58
67599;BMP280;62026;39.230;9.122;2022-09-12T10:50:30;100995.34;;;29.84
67599;BMP280;62026;39.230;9.122;2022-09-12T10:53:21;100964.94;;;29.70
67599;BMP280;62026;39.230;9.122;2022-09-12T11:06:22;100959.00;;;29.32
67599;BMP280;62026;39.230;9.122;2022-09-12T11:11:37;100970.81;;;29.48
67599;BMP280;62026;39.230;9.122;2022-09-12T11:14:20;100980.25;;;29.51
67599;BMP280;62026;39.230;9.122;2022-09-12T11:17:02;100983.16;;;29.46
67599;BMP280;62026;39.230;9.122;2022-09-12T11:25:48;100981.44;;;29.29
67599;BMP280;62026;39.230;9.122;2022-09-12T11:28:53;100984.88;;;29.38
67599;BMP280;62026;39.230;9.122;2022-09-12T11:34:08;100989.69;;;28.87
67599;BMP280;62026;39.230;9.122;2022-09-12T11:39:22;100974.13;;;29.09
67599;BMP280;62026;39.230;9.122;2022-09-12T11:41:54;100979.47;;;29.17
67599;BMP280;62026;39.230;9.122;2022-09-12T11:44:33;100980.81;;;29.44
67599;BMP280;62026;39.230;9.122;2022-09-12T11:47:04;100990.25;;;29.26
67599;BMP280;62026;39.230;9.122;2022-09-12T11:49:36;100982.97;;;29.06
67599;BMP280;62026;39.230;9.122;2022-09-12T11:52:10;100972.66;;;29.11
67599;BMP280;62026;39.230;9.122;2022-09-12T11:59:58;100963.69;;;29.11
67599;BMP280;62026;39.230;9.122;2022-09-12T12:02:29;100984.38;;;29.24
67599;BMP280;62026;39.230;9.122;2022-09-12T12:06:00;100988.44;;;29.18
67599;BMP280;62026;39.230;9.122;2022-09-12T12:08:07;100973.09;;;29.01
67599;BMP280;62026;39.230;9.122;2022-09-12T12:10:37;100975.47;;;29.03
67599;BMP280;62026;39.230;9.122;2022-09-12T12:15:52;100966.66;;;29.06
67599;BMP280;62026;39.230;9.122;2022-09-12T12:18:26;100967.53;;;28.98
67599;BMP280;62026;39.230;9.122;2022-09-12T12:20:54;100968.59;;;28.84
67599;BMP280;62026;39.230;9.122;2022-09-12T12:23:33;100958.81;;;28.71
67599;BMP280;62026;39.230;9.122;2022-09-12T12:26:01;100962.91;;;28.77
67599;BMP280;62026;39.230;9.122;2022-09-12T12:31:06;100937.28;;;28.66
67599;BMP280;62026;39.230;9.122;2022-09-12T12:38:32;100932.66;;;28.79
67599;BMP280;62026;39.230;9.122;2022-09-12T12:43:52;100943.19;;;28.80
67599;BMP280;62026;39.230;9.122;2022-09-12T12:46:23;100957.53;;;28.69
67599;BMP280;62026;39.230;9.122;2022-09-12T12:51:54;100955.63;;;28.69
67599;BMP280;62026;39.230;9.122;2022-09-12T12:57:40;100938.94;;;28.59
67599;BMP280;62026;39.230;9.122;2022-09-12T13:03:09;100958.00;;;28.50
67599;BMP280;62026;39.230;9.122;2022-09-12T13:05:49;100938.28;;;28.41
67599;BMP280;62026;39.230;9.122;2022-09-12T13:15:57;100935.63;;;28.53
67599;BMP280;62026;39.230;9.122;2022-09-12T13:18:31;100932.44;;;28.51
67599;BMP280;62026;39.230;9.122;2022-09-12T13:21:08;100938.44;;;28.57
67599;BMP280;62026;39.230;9.122;2022-09-12T13:23:35;100938.59;;;28.60
67599;BMP280;62026;39.230;9.122;2022-09-12T13:26:01;100944.22;;;28.55
67599;BMP280;62026;39.230;9.122;2022-09-12T13:28:29;100928.88;;;28.59
67599;BMP280;62026;39.230;9.122;2022-09-12T13:33:41;100925.22;;;28.55
67599;BMP280;62026;39.230;9.122;2022-09-12T13:39:26;100927.00;;;28.51
67599;BMP280;62026;39.230;9.122;2022-09-12T13:42:01;100915.09;;;28.43
67599;BMP280;62026;39.230;9.122;2022-09-12T13:44:29;100910.22;;;28.49
67599;BMP280;62026;39.230;9.122;2022-09-12T13:47:00;100916.13;;;28.51
67599;BMP280;62026;39.230;9.122;2022-09-12T13:49:31;100905.91;;;28.48
67599;BMP280;62026;39.230;9.122;2022-09-12T13:52:03;100899.28;;;28.58
67599;BMP280;62026;39.230;9.122;2022-09-12T13:54:31;100897.84;;;28.60
67599;BMP280;62026;39.230;9.122;2022-09-12T13:56:58;100901.44;;;28.52
67599;BMP280;62026;39.230;9.122;2022-09-12T13:59:24;100889.44;;;28.53
67599;BMP280;62026;39.230;9.122;2022-09-12T14:01:50;100897.44;;;28.49
67599;BMP280;62026;39.230;9.122;2022-09-12T14:07:20;100880.59;;;28.56
67599;BMP280;62026;39.230;9.122;2022-09-12T14:09:57;100887.84;;;28.31
67599;BMP280;62026;39.230;9.122;2022-09-12T14:12:27;100894.66;;;28.58
67599;BMP280;62026;39.230;9.122;2022-09-12T14:14:55;100895.03;;;28.48
67599;BMP280;62026;39.230;9.122;2022-09-12T14:17:31;100879.94;;;28.18
67599;BMP280;62026;39.230;9.122;2022-09-12T14:19:59;100892.81;;;28.29
67599;BMP280;62026;39.230;9.122;2022-09-12T14:22:28;100879.78;;;28.23
67599;BMP280;62026;39.230;9.122;2022-09-12T14:24:55;100882.06;;;28.33
67599;BMP280;62026;39.230;9.122;2022-09-12T14:27:26;100888.44;;;28.37
67599;BMP280;62026;39.230;9.122;2022-09-12T14:30:24;100878.31;;;28.25
67599;BMP280;62026;39.230;9.122;2022-09-12T14:35:49;100882.50;;;28.23
67599;BMP280;62026;39.230;9.122;2022-09-12T14:40:42;100893.34;;;28.23
67599;BMP280;62026;39.230;9.122;2022-09-12T14:43:33;100891.75;;;28.22
67599;BMP280;62026;39.230;9.122;2022-09-12T14:46:07;100897.56;;;28.12
67599;BMP280;62026;39.230;9.122;2022-09-12T14:48:44;100886.84;;;28.15
67599;BMP280;62026;39.230;9.122;2022-09-12T14:51:22;100878.38;;;28.17
67599;BMP280;62026;39.230;9.122;2022-09-12T14:53:49;100873.41;;;28.19
67599;BMP280;62026;39.230;9.122;2022-09-12T14:56:16;100878.75;;;27.86
67599;BMP280;62026;39.230;9.122;2022-09-12T14:58:44;100870.28;;;28.08
67599;BMP280;62026;39.230;9.122;2022-09-12T15:03:49;100868.97;;;28.14
67599;BMP280;62026;39.230;9.122;2022-09-12T15:06:38;100868.97;;;28.14
67599;BMP280;62026;39.230;9.122;2022-09-12T15:09:07;100871.19;;;28.12
67599;BMP280;62026;39.230;9.122;2022-09-12T15:11:33;100881.94;;;28.08
67599;BMP280;62026;39.230;9.122;2022-09-12T15:14:11;100873.19;;;28.24
67599;BMP280;62026;39.230;9.122;2022-09-12T15:16:37;100873.19;;;28.03
67599;BMP280;62026;39.230;9.122;2022-09-12T15:19:03;100877.28;;;27.88
67599;BMP280;62026;39.230;9.122;2022-09-12T15:21:29;100865.84;;;28.03
67599;BMP280;62026;39.230;9.122;2022-09-12T15:23:55;100861.06;;;28.00
67599;BMP280;62026;39.230;9.122;2022-09-12T15:26:23;100863.31;;;27.98
67599;BMP280;62026;39.230;9.122;2022-09-12T15:28:51;100863.53;;;28.14
67599;BMP280;62026;39.230;9.122;2022-09-12T15:31:28;100849.53;;;28.03
67599;BMP280;62026;39.230;9.122;2022-09-12T15:33:56;100869.75;;;28.15
67599;BMP280;62026;39.230;9.122;2022-09-12T15:36:23;100828.28;;;27.85
67599;BMP280;62026;39.230;9.122;2022-09-12T15:38:50;100867.91;;;28.06
67599;BMP280;62026;39.230;9.122;2022-09-12T15:41:22;100854.41;;;27.98
67599;BMP280;62026;39.230;9.122;2022-09-12T15:43:50;100878.31;;;27.96
67599;BMP280;62026;39.230;9.122;2022-09-12T15:46:16;100865.25;;;27.89
67599;BMP280;62026;39.230;9.122;2022-09-12T15:48:43;100878.09;;;28.09
67599;BMP280;62026;39.230;9.122;2022-09-12T15:51:14;100867.91;;;27.77
67599;BMP280;62026;39.230;9.122;2022-09-12T15:53:40;100876.63;;;27.91
67599;BMP280;62026;39.230;9.122;2022-09-12T15:56:07;100855.56;;;27.88
67599;BMP280;62026;39.230;9.122;2022-09-12T15:58:33;100856.22;;;27.85
67599;BMP280;62026;39.230;9.122;2022-09-12T16:00:59;100874.25;;;27.90
67599;BMP280;62026;39.230;9.122;2022-09-12T16:03:27;100862.31;;;27.82
67599;BMP280;62026;39.230;9.122;2022-09-12T16:05:55;100859.19;;;27.92
67599;BMP280;62026;39.230;9.122;2022-09-12T16:08:22;100855.56;;;27.88
67599;BMP280;62026;39.230;9.122;2022-09-12T16:10:54;100856.91;;;27.82
67599;BMP280;62026;39.230;9.122;2022-09-12T16:13:24;100854.34;;;27.77
67599;BMP280;62026;39.230;9.122;2022-09-12T16:15:51;100852.44;;;27.78
67599;BMP280;62026;39.230;9.122;2022-09-12T16:18:17;100837.75;;;27.79
67599;BMP280;62026;39.230;9.122;2022-09-12T16:20:43;100847.56;;;27.62
67599;BMP280;62026;39.230;9.122;2022-09-12T16:23:10;100847.59;;;27.83
67599;BMP280;62026;39.230;9.122;2022-09-12T16:25:38;100838.19;;;27.81
67599;BMP280;62026;39.230;9.122;2022-09-12T16:28:05;100854.25;;;27.94
67599;BMP280;62026;39.230;9.122;2022-09-12T16:30:31;100852.84;;;27.88
67599;BMP280;62026;39.230;9.122;2022-09-12T16:32:57;100857.41;;;27.76
67599;BMP280;62026;39.230;9.122;2022-09-12T16:35:23;100852.91;;;27.80
67599;BMP280;62026;39.230;9.122;2022-09-12T16:37:49;100854.41;;;27.69
67599;BMP280;62026;39.230;9.122;2022-09-12T16:40:15;100855.75;;;27.83
67599;BMP280;62026;39.230;9.122;2022-09-12T16:42:44;100854.09;;;27.70
67599;BMP280;62026;39.230;9.122;2022-09-12T16:45:11;100832.34;;;27.41